createdAt,value
2018-06-24T00:00:55.380Z,16.10
2018-06-24T00:01:59.603Z,16.10
2018-06-24T00:03:03.963Z,16.10
2018-06-24T00:04:08.842Z,16.00
2018-06-24T00:05:13.167Z,16.00
2018-06-24T00:06:17.348Z,16.00
2018-06-24T00:07:21.594Z,16.00
2018-06-24T00:08:25.823Z,16.00
2018-06-24T00:09:30.117Z,16.00
2018-06-24T00:10:34.390Z,16.00
2018-06-24T00:11:38.832Z,16.00
2018-06-24T00:12:43.102Z,16.00
2018-06-24T00:13:47.431Z,16.00
2018-06-24T00:14:51.766Z,15.90
2018-06-24T00:15:56.073Z,15.90
2018-06-24T00:17:00.701Z,16.00
2018-06-24T00:18:04.830Z,16.00
2018-06-24T00:19:09.048Z,15.90
2018-06-24T00:20:13.161Z,15.90
2018-06-24T00:21:17.273Z,15.90
2018-06-24T00:22:21.838Z,15.90
2018-06-24T00:23:26.918Z,15.80
2018-06-24T00:24:30.958Z,15.80
2018-06-24T00:25:34.943Z,15.80
2018-06-24T00:26:39.084Z,15.80
2018-06-24T00:27:43.248Z,15.80
2018-06-24T00:28:47.272Z,15.80
2018-06-24T00:29:51.258Z,15.80
2018-06-24T00:30:55.313Z,15.80
2018-06-24T00:31:59.308Z,15.80
2018-06-24T00:33:03.341Z,15.80
2018-06-24T00:34:07.283Z,15.80
2018-06-24T00:35:11.632Z,15.80
2018-06-24T00:36:15.912Z,15.90
2018-06-24T00:37:20.250Z,15.90
2018-06-24T00:38:24.567Z,15.90
2018-06-24T00:39:28.809Z,15.90
2018-06-24T00:40:33.081Z,15.90
2018-06-24T00:41:37.497Z,15.90
2018-06-24T00:42:41.676Z,15.90
2018-06-24T00:43:46.151Z,15.90
2018-06-24T00:44:50.337Z,15.90
2018-06-24T00:45:54.560Z,15.90
2018-06-24T00:46:58.969Z,15.90
2018-06-24T00:48:03.143Z,15.90
2018-06-24T00:49:07.260Z,15.90
2018-06-24T00:50:11.351Z,15.90
2018-06-24T00:51:15.415Z,15.90
2018-06-24T00:52:19.697Z,15.90
2018-06-24T00:53:23.764Z,16.00
2018-06-24T00:54:27.890Z,16.00
2018-06-24T00:55:31.923Z,16.00
2018-06-24T00:56:35.961Z,16.00
2018-06-24T00:57:39.951Z,16.00
2018-06-24T00:58:44.232Z,16.00
2018-06-24T00:59:59.273Z,16.00
2018-06-24T01:01:03.498Z,16.00
2018-06-24T01:02:07.716Z,16.00
2018-06-24T01:03:12.082Z,16.00
2018-06-24T01:04:16.360Z,16.00
2018-06-24T01:05:20.574Z,16.00
2018-06-24T01:06:24.852Z,16.00
2018-06-24T01:07:29.026Z,16.00
2018-06-24T01:08:33.360Z,16.00
2018-06-24T01:09:37.632Z,16.00
2018-06-24T01:10:42.015Z,16.00
2018-06-24T01:11:46.860Z,16.00
2018-06-24T01:12:51.115Z,16.00
2018-06-24T01:13:55.288Z,15.90
2018-06-24T01:14:59.315Z,15.90
2018-06-24T01:16:03.292Z,15.90
2018-06-24T01:17:07.674Z,15.90
2018-06-24T01:18:11.623Z,15.90
2018-06-24T01:19:15.673Z,15.90
2018-06-24T01:20:21.023Z,15.90
2018-06-24T01:21:25.109Z,15.90
2018-06-24T01:22:29.481Z,15.80
2018-06-24T01:23:33.579Z,15.80
2018-06-24T01:24:37.705Z,15.80
2018-06-24T01:25:41.835Z,15.80
2018-06-24T01:26:45.801Z,15.80
2018-06-24T01:27:49.752Z,15.80
2018-06-24T01:28:54.119Z,15.80
2018-06-24T01:29:58.102Z,15.80
2018-06-24T01:31:02.113Z,15.80
2018-06-24T01:32:06.047Z,15.80
2018-06-24T01:33:10.263Z,15.80
2018-06-24T01:34:14.713Z,15.80
2018-06-24T01:35:18.925Z,15.80
2018-06-24T01:36:23.103Z,15.80
2018-06-24T01:37:27.296Z,15.80
2018-06-24T01:38:31.470Z,15.80
2018-06-24T01:40:39.676Z,15.80
2018-06-24T01:41:44.224Z,15.80
2018-06-24T01:42:48.553Z,15.80
2018-06-24T01:43:53.095Z,15.80
2018-06-24T01:44:57.548Z,15.80
2018-06-24T01:46:01.855Z,15.80
2018-06-24T01:47:06.749Z,15.80
2018-06-24T01:50:07.650Z,15.80
2018-06-24T01:51:11.855Z,15.80
2018-06-24T01:52:16.095Z,15.80
2018-06-24T01:53:20.472Z,15.80
2018-06-24T01:54:24.375Z,15.80
2018-06-24T01:55:28.361Z,15.80
2018-06-24T01:56:32.351Z,15.80
2018-06-24T01:57:36.351Z,15.80
2018-06-24T01:58:40.351Z,15.80
2018-06-24T01:59:44.312Z,15.80
2018-06-24T02:00:48.297Z,15.80
2018-06-24T02:01:52.451Z,15.80
2018-06-24T02:02:56.353Z,15.80
2018-06-24T02:04:00.469Z,15.80
2018-06-24T02:05:04.551Z,15.80
2018-06-24T02:06:08.464Z,15.80
2018-06-24T02:07:12.418Z,15.90
2018-06-24T02:08:16.410Z,15.90
2018-06-24T02:09:20.464Z,15.90
2018-06-24T02:10:24.530Z,15.90
2018-06-24T02:11:28.506Z,15.90
2018-06-24T02:12:32.760Z,15.90
2018-06-24T02:13:36.677Z,15.90
2018-06-24T02:14:40.640Z,15.90
2018-06-24T02:15:45.191Z,15.90
2018-06-24T02:16:49.431Z,15.80
2018-06-24T02:17:54.021Z,15.90
2018-06-24T02:18:58.500Z,15.90
2018-06-24T02:20:02.664Z,15.90
2018-06-24T02:21:07.032Z,15.80
2018-06-24T02:22:11.314Z,15.80
2018-06-24T02:23:15.674Z,15.80
2018-06-24T02:24:19.840Z,15.80
2018-06-24T02:25:23.923Z,15.80
2018-06-24T02:26:27.881Z,15.80
2018-06-24T02:27:31.830Z,15.80
2018-06-24T02:28:35.772Z,15.80
2018-06-24T02:29:39.826Z,15.80
2018-06-24T02:30:44.060Z,15.80
2018-06-24T02:31:48.414Z,15.80
2018-06-24T02:32:52.683Z,15.80
2018-06-24T02:33:56.959Z,15.80
2018-06-24T02:35:01.190Z,15.80
2018-06-24T02:36:05.415Z,15.80
2018-06-24T02:37:09.694Z,15.80
2018-06-24T02:38:14.007Z,15.90
2018-06-24T02:39:18.288Z,15.90
2018-06-24T02:40:22.365Z,15.80
2018-06-24T02:41:26.322Z,15.80
2018-06-24T02:42:30.403Z,15.80
2018-06-24T02:43:34.518Z,15.80
2018-06-24T02:44:38.497Z,15.80
2018-06-24T02:45:42.434Z,15.80
2018-06-24T02:46:46.379Z,15.70
2018-06-24T02:47:50.402Z,15.70
2018-06-24T02:48:54.340Z,15.70
2018-06-24T02:49:58.429Z,15.70
2018-06-24T02:51:02.935Z,15.70
2018-06-24T02:52:07.155Z,15.60
2018-06-24T02:53:11.414Z,15.60
2018-06-24T02:54:15.787Z,15.60
2018-06-24T02:55:20.068Z,15.60
2018-06-24T02:56:24.326Z,15.60
2018-06-24T02:57:28.561Z,15.60
2018-06-24T02:58:32.716Z,15.60
2018-06-24T02:59:37.252Z,15.60
2018-06-24T03:00:41.558Z,15.60
2018-06-24T03:01:45.980Z,15.60
2018-06-24T03:02:50.221Z,15.60
2018-06-24T03:03:54.435Z,15.60
2018-06-24T03:04:58.699Z,15.40
2018-06-24T03:06:03.353Z,15.50
2018-06-24T03:07:07.596Z,15.50
2018-06-24T03:08:11.767Z,15.50
2018-06-24T03:09:16.373Z,15.50
2018-06-24T03:10:20.601Z,15.50
2018-06-24T03:11:24.914Z,15.50
2018-06-24T03:12:29.091Z,15.50
2018-06-24T03:13:33.372Z,15.50
2018-06-24T03:14:38.527Z,15.50
2018-06-24T03:15:42.704Z,15.40
2018-06-24T03:16:46.908Z,15.40
2018-06-24T03:17:51.076Z,15.40
2018-06-24T03:18:55.237Z,15.40
2018-06-24T03:19:59.395Z,15.40
2018-06-24T03:21:03.452Z,15.30
2018-06-24T03:22:07.565Z,15.30
2018-06-24T03:23:11.653Z,15.30
2018-06-24T03:24:15.758Z,15.30
2018-06-24T03:25:19.957Z,15.30
2018-06-24T03:26:23.984Z,15.30
2018-06-24T03:27:27.910Z,15.30
2018-06-24T03:28:31.934Z,15.30
2018-06-24T03:29:36.101Z,15.30
2018-06-24T03:30:40.367Z,15.30
2018-06-24T03:31:44.833Z,15.30
2018-06-24T03:32:49.018Z,15.20
2018-06-24T03:33:53.142Z,15.20
2018-06-24T03:34:57.270Z,15.20
2018-06-24T03:36:01.464Z,15.20
2018-06-24T03:37:05.463Z,15.20
2018-06-24T03:38:09.711Z,15.20
2018-06-24T03:39:13.672Z,15.20
2018-06-24T03:40:17.682Z,15.20
2018-06-24T03:41:21.667Z,15.20
2018-06-24T03:42:25.696Z,15.20
2018-06-24T03:43:29.605Z,15.20
2018-06-24T03:44:34.007Z,15.20
2018-06-24T03:45:37.966Z,15.20
2018-06-24T03:46:41.860Z,15.20
2018-06-24T03:47:45.848Z,15.20
2018-06-24T03:48:49.805Z,15.20
2018-06-24T03:49:53.805Z,15.20
2018-06-24T03:50:59.239Z,15.20
2018-06-24T03:52:03.372Z,15.20
2018-06-24T03:53:07.373Z,15.20
2018-06-24T03:54:11.367Z,15.20
2018-06-24T03:55:15.762Z,15.30
2018-06-24T03:56:20.277Z,15.30
2018-06-24T03:57:24.488Z,15.30
2018-06-24T03:58:28.690Z,15.30
2018-06-24T03:59:32.782Z,15.40
2018-06-24T04:00:36.838Z,15.40
2018-06-24T04:01:40.893Z,15.40
2018-06-24T04:02:46.237Z,15.30
2018-06-24T04:03:50.365Z,15.40
2018-06-24T04:04:54.407Z,15.30
2018-06-24T04:05:58.727Z,15.30
2018-06-24T04:07:02.970Z,15.30
2018-06-24T04:08:07.085Z,15.30
2018-06-24T04:09:11.545Z,15.30
2018-06-24T04:10:15.860Z,15.30
2018-06-24T04:11:20.161Z,15.30
2018-06-24T04:12:24.643Z,15.30
2018-06-24T04:13:28.957Z,15.30
2018-06-24T04:14:33.592Z,15.30
2018-06-24T04:15:38.079Z,15.30
2018-06-24T04:16:43.066Z,15.30
2018-06-24T04:17:49.805Z,15.30
2018-06-24T04:18:54.737Z,15.30
2018-06-24T04:20:00.884Z,15.30
2018-06-24T04:21:06.025Z,15.30
2018-06-24T04:22:10.788Z,15.30
2018-06-24T04:23:16.073Z,15.30
2018-06-24T04:24:20.389Z,15.30
2018-06-24T04:25:24.772Z,15.30
2018-06-24T04:26:29.188Z,15.30
2018-06-24T04:27:33.756Z,15.30
2018-06-24T04:28:38.165Z,15.30
2018-06-24T04:29:42.443Z,15.30
2018-06-24T04:30:46.774Z,15.30
2018-06-24T04:31:51.080Z,15.30
2018-06-24T04:32:55.353Z,15.30
2018-06-24T04:34:00.014Z,15.40
2018-06-24T04:35:04.569Z,15.30
2018-06-24T04:36:09.077Z,15.40
2018-06-24T04:37:13.547Z,15.40
2018-06-24T04:38:17.573Z,15.40
2018-06-24T04:39:23.263Z,15.40
2018-06-24T04:40:27.452Z,15.30
2018-06-24T04:41:31.572Z,15.30
2018-06-24T04:42:35.816Z,15.40
2018-06-24T04:43:39.850Z,15.40
2018-06-24T04:44:44.024Z,15.40
2018-06-24T04:45:48.049Z,15.40
2018-06-24T04:46:52.175Z,15.40
2018-06-24T04:47:56.157Z,15.40
2018-06-24T04:49:00.208Z,15.40
2018-06-24T04:50:04.459Z,15.40
2018-06-24T04:51:08.787Z,15.40
2018-06-24T04:52:12.907Z,15.40
2018-06-24T04:53:16.996Z,15.40
2018-06-24T04:54:21.441Z,15.40
2018-06-24T04:55:25.546Z,15.40
2018-06-24T04:56:29.849Z,15.40
2018-06-24T04:57:34.712Z,15.40
2018-06-24T04:58:39.229Z,15.40
2018-06-24T04:59:43.636Z,15.40
2018-06-24T05:00:47.914Z,15.40
2018-06-24T05:01:52.328Z,15.40
2018-06-24T05:02:56.721Z,15.40
2018-06-24T05:04:01.072Z,15.40
2018-06-24T05:05:05.581Z,15.50
2018-06-24T05:06:09.930Z,15.50
2018-06-24T05:07:14.166Z,15.50
2018-06-24T05:08:18.382Z,15.50
2018-06-24T05:09:22.739Z,15.50
2018-06-24T05:10:26.749Z,15.50
2018-06-24T05:11:30.851Z,15.50
2018-06-24T05:12:35.144Z,15.50
2018-06-24T05:13:39.703Z,15.60
2018-06-24T05:14:43.804Z,15.60
2018-06-24T05:15:47.794Z,15.50
2018-06-24T05:16:51.791Z,15.50
2018-06-24T05:17:55.715Z,15.50
2018-06-24T05:18:59.809Z,15.50
2018-06-24T05:20:03.882Z,15.50
2018-06-24T05:21:07.920Z,15.50
2018-06-24T05:22:12.304Z,15.60
2018-06-24T05:23:16.519Z,15.60
2018-06-24T05:24:20.803Z,15.60
2018-06-24T05:26:30.157Z,15.70
2018-06-24T05:27:34.220Z,15.70
2018-06-24T05:28:38.209Z,15.70
2018-06-24T05:29:42.276Z,15.70
2018-06-24T05:32:15.335Z,15.80
2018-06-24T05:33:19.897Z,15.90
2018-06-24T05:34:24.110Z,15.80
2018-06-24T05:35:28.290Z,15.80
2018-06-24T05:36:32.452Z,15.80
2018-06-24T05:37:36.663Z,15.80
2018-06-24T05:38:40.959Z,15.90
2018-06-24T05:39:45.242Z,15.90
2018-06-24T05:40:49.265Z,16.00
2018-06-24T05:41:54.273Z,16.00
2018-06-24T05:42:58.859Z,16.00
2018-06-24T05:44:03.271Z,16.10
2018-06-24T05:45:07.324Z,16.10
2018-06-24T05:46:11.500Z,16.10
2018-06-24T05:47:15.753Z,16.00
2018-06-24T05:48:20.023Z,16.10
2018-06-24T05:49:24.261Z,16.10
2018-06-24T05:50:28.605Z,16.10
2018-06-24T05:51:32.709Z,16.10
2018-06-24T05:52:36.730Z,16.20
2018-06-24T05:53:40.732Z,16.20
2018-06-24T05:54:45.120Z,16.20
2018-06-24T05:55:49.401Z,16.20
2018-06-24T05:56:53.454Z,16.20
2018-06-24T05:57:57.431Z,16.20
2018-06-24T05:59:01.405Z,16.20
2018-06-24T06:00:06.053Z,16.20
2018-06-24T06:01:09.949Z,16.30
2018-06-24T06:02:14.030Z,16.30
2018-06-24T06:03:18.000Z,16.30
2018-06-24T06:04:25.053Z,16.30
2018-06-24T06:05:29.259Z,16.20
2018-06-24T06:06:33.440Z,16.30
2018-06-24T06:07:37.641Z,16.30
2018-06-24T06:08:42.001Z,16.20
2018-06-24T06:09:46.225Z,16.30
2018-06-24T06:10:50.484Z,16.30
2018-06-24T06:11:54.738Z,16.30
2018-06-24T06:12:59.009Z,16.40
2018-06-24T06:14:03.002Z,16.40
2018-06-24T06:15:07.128Z,16.40
2018-06-24T06:16:11.749Z,16.40
2018-06-24T06:17:15.971Z,16.40
2018-06-24T06:18:20.102Z,16.50
2018-06-24T06:19:24.202Z,16.50
2018-06-24T06:20:28.183Z,16.50
2018-06-24T06:21:32.921Z,16.50
2018-06-24T06:22:37.001Z,16.50
2018-06-24T06:23:49.320Z,16.60
2018-06-24T06:24:53.310Z,16.60
2018-06-24T06:25:57.316Z,16.60
2018-06-24T06:27:01.373Z,16.60
2018-06-24T06:28:05.520Z,16.60
2018-06-24T06:30:12.263Z,16.60
2018-06-24T06:31:16.373Z,16.70
2018-06-24T06:32:20.537Z,16.70
2018-06-24T06:33:25.665Z,16.70
2018-06-24T06:34:31.143Z,16.60
2018-06-24T06:35:35.705Z,16.70
2018-06-24T06:36:39.856Z,16.70
2018-06-24T06:37:43.837Z,16.70
2018-06-24T06:38:47.964Z,16.70
2018-06-24T06:39:52.225Z,16.70
2018-06-24T06:40:56.543Z,16.70
2018-06-24T06:42:00.575Z,16.60
2018-06-24T06:43:04.626Z,16.60
2018-06-24T06:44:08.763Z,16.60
2018-06-24T06:45:12.843Z,16.60
2018-06-24T06:46:16.852Z,16.60
2018-06-24T06:47:21.095Z,16.50
2018-06-24T06:48:25.583Z,16.50
2018-06-24T06:49:29.910Z,16.60
2018-06-24T06:50:34.525Z,16.60
2018-06-24T06:51:38.795Z,16.60
2018-06-24T06:52:42.996Z,16.60
2018-06-24T06:53:47.204Z,16.70
2018-06-24T06:54:51.503Z,16.70
2018-06-24T06:55:55.728Z,16.70
2018-06-24T06:57:00.085Z,16.70
2018-06-24T06:58:04.231Z,16.80
2018-06-24T06:59:08.260Z,16.80
2018-06-24T07:00:12.342Z,16.80
2018-06-24T07:01:16.440Z,16.80
2018-06-24T07:02:20.889Z,16.90
2018-06-24T07:03:26.134Z,16.90
2018-06-24T07:04:30.555Z,16.80
2018-06-24T07:05:34.857Z,16.80
2018-06-24T07:06:39.339Z,16.90
2018-06-24T07:07:44.675Z,16.90
2018-06-24T07:08:48.948Z,16.90
2018-06-24T07:09:53.305Z,17.00
2018-06-24T07:10:57.687Z,17.00
2018-06-24T07:12:02.558Z,17.10
2018-06-24T07:13:06.535Z,17.10
2018-06-24T07:14:10.624Z,17.20
2018-06-24T07:15:14.719Z,17.20
2018-06-24T07:16:18.763Z,17.30
2018-06-24T07:17:23.211Z,17.30
2018-06-24T07:18:27.916Z,17.30
2018-06-24T07:19:32.330Z,17.40
2018-06-24T07:20:36.486Z,17.40
2018-06-24T07:21:41.266Z,17.50
2018-06-24T07:22:45.716Z,17.50
2018-06-24T07:23:49.820Z,17.50
2018-06-24T07:24:53.822Z,17.50
2018-06-24T07:25:58.543Z,17.50
2018-06-24T07:27:02.559Z,17.50
2018-06-24T07:28:06.956Z,17.60
2018-06-24T07:29:10.955Z,17.60
2018-06-24T07:30:14.896Z,17.60
2018-06-24T07:31:18.976Z,17.50
2018-06-24T07:32:23.208Z,17.50
2018-06-24T07:33:27.390Z,17.50
2018-06-24T07:34:33.854Z,17.60
2018-06-24T07:35:38.072Z,17.60
2018-06-24T07:36:42.113Z,17.60
2018-06-24T07:37:46.084Z,17.60
2018-06-24T07:38:50.081Z,17.60
2018-06-24T07:39:54.225Z,17.60
2018-06-24T07:40:58.213Z,17.60
2018-06-24T07:42:02.255Z,17.60
2018-06-24T07:43:06.350Z,17.70
2018-06-24T07:44:10.587Z,17.70
2018-06-24T07:45:14.642Z,17.70
2018-06-24T07:46:18.642Z,17.70
2018-06-24T07:47:23.425Z,17.70
2018-06-24T07:48:27.920Z,17.80
2018-06-24T07:49:32.199Z,17.80
2018-06-24T07:50:36.846Z,17.80
2018-06-24T07:51:41.542Z,17.80
2018-06-24T07:52:45.869Z,17.80
2018-06-24T07:53:50.092Z,17.90
2018-06-24T07:54:54.283Z,17.90
2018-06-24T07:55:59.085Z,17.90
2018-06-24T07:57:03.680Z,17.90
2018-06-24T07:58:07.904Z,17.90
2018-06-24T07:59:12.090Z,17.90
2018-06-24T08:00:16.293Z,17.90
2018-06-24T08:01:20.305Z,17.80
2018-06-24T08:02:24.392Z,17.80
2018-06-24T08:03:29.887Z,17.80
2018-06-24T08:04:33.936Z,17.70
2018-06-24T08:05:37.915Z,17.70
2018-06-24T08:06:41.905Z,17.60
2018-06-24T08:07:45.837Z,17.70
2018-06-24T08:08:49.790Z,17.60
2018-06-24T08:09:54.250Z,17.60
2018-06-24T08:10:58.330Z,17.60
2018-06-24T08:12:02.249Z,17.60
2018-06-24T08:13:06.649Z,17.70
2018-06-24T08:14:10.796Z,17.70
2018-06-24T08:15:14.858Z,17.70
2018-06-24T08:16:19.210Z,17.70
2018-06-24T08:17:23.641Z,17.70
2018-06-24T08:18:27.982Z,17.70
2018-06-24T08:19:32.549Z,17.70
2018-06-24T08:20:36.632Z,17.70
2018-06-24T08:21:40.743Z,17.70
2018-06-24T08:22:44.825Z,17.70
2018-06-24T08:23:48.846Z,17.70
2018-06-24T08:24:52.848Z,17.70
2018-06-24T08:25:58.017Z,17.80
2018-06-24T08:27:02.078Z,17.80
2018-06-24T08:28:06.348Z,17.80
2018-06-24T08:29:10.356Z,17.80
2018-06-24T08:30:14.410Z,17.80
2018-06-24T08:31:18.341Z,17.80
2018-06-24T08:32:22.321Z,17.90
2018-06-24T08:33:26.513Z,17.90
2018-06-24T08:34:31.015Z,17.90
2018-06-24T08:35:35.023Z,17.90
2018-06-24T08:36:39.190Z,17.90
2018-06-24T08:37:43.369Z,17.90
2018-06-24T08:38:47.806Z,17.90
2018-06-24T08:39:52.178Z,17.90
2018-06-24T08:40:56.484Z,18.00
2018-06-24T08:42:00.826Z,18.00
2018-06-24T08:43:05.494Z,18.00
2018-06-24T08:44:09.720Z,18.10
2018-06-24T08:45:14.094Z,18.10
2018-06-24T08:46:18.128Z,18.20
2018-06-24T08:47:22.230Z,18.20
2018-06-24T08:48:26.326Z,18.30
2018-06-24T08:49:30.344Z,18.30
2018-06-24T08:50:34.474Z,18.30
2018-06-24T08:51:38.573Z,18.30
2018-06-24T08:52:42.604Z,18.40
2018-06-24T08:53:46.607Z,18.40
2018-06-24T08:54:50.610Z,18.40
2018-06-24T08:55:54.641Z,18.50
2018-06-24T08:56:58.721Z,18.50
2018-06-24T08:58:02.773Z,18.50
2018-06-24T08:59:06.865Z,18.60
2018-06-24T09:00:10.826Z,18.60
2018-06-24T09:01:14.921Z,18.70
2018-06-24T09:02:18.877Z,18.70
2018-06-24T09:03:22.960Z,18.80
2018-06-24T09:04:27.329Z,18.80
2018-06-24T09:05:31.577Z,18.80
2018-06-24T09:06:35.793Z,18.80
2018-06-24T09:07:40.252Z,18.80
2018-06-24T09:08:44.457Z,18.80
2018-06-24T09:09:48.855Z,18.80
2018-06-24T09:10:53.062Z,18.90
2018-06-24T09:11:57.245Z,18.90
2018-06-24T09:13:01.481Z,18.90
2018-06-24T09:14:05.993Z,19.00
2018-06-24T09:15:10.032Z,19.00
2018-06-24T09:16:14.308Z,19.10
2018-06-24T09:17:18.568Z,19.10
2018-06-24T09:18:22.602Z,19.10
2018-06-24T09:19:26.653Z,19.10
2018-06-24T09:20:30.844Z,19.10
2018-06-24T09:21:34.916Z,19.20
2018-06-24T09:22:38.828Z,19.20
2018-06-24T09:23:42.811Z,19.20
2018-06-24T09:24:46.964Z,19.30
2018-06-24T09:25:51.216Z,19.30
2018-06-24T09:26:55.437Z,19.40
2018-06-24T09:27:59.917Z,19.40
2018-06-24T09:29:04.165Z,19.40
2018-06-24T09:30:08.423Z,19.30
2018-06-24T09:31:12.645Z,19.40
2018-06-24T09:32:16.943Z,19.40
2018-06-24T09:33:21.184Z,19.40
2018-06-24T09:34:25.385Z,19.50
2018-06-24T09:35:29.625Z,19.40
2018-06-24T09:36:34.343Z,19.40
2018-06-24T09:37:38.390Z,19.50
2018-06-24T09:38:42.418Z,19.50
2018-06-24T09:39:46.341Z,19.50
2018-06-24T09:40:50.356Z,19.50
2018-06-24T09:41:54.802Z,19.50
2018-06-24T09:42:59.026Z,19.60
2018-06-24T09:44:02.903Z,19.60
2018-06-24T09:45:06.825Z,19.70
2018-06-24T09:46:10.913Z,19.70
2018-06-24T09:47:14.989Z,19.70
2018-06-24T09:48:19.139Z,19.70
2018-06-24T09:49:23.038Z,19.80
2018-06-24T09:50:27.048Z,19.80
2018-06-24T09:51:31.179Z,19.80
2018-06-24T09:52:37.582Z,19.90
2018-06-24T09:53:41.831Z,19.90
2018-06-24T09:54:46.253Z,20.00
2018-06-24T09:55:50.568Z,20.10
2018-06-24T09:56:55.256Z,20.10
2018-06-24T09:57:59.695Z,20.10
2018-06-24T09:59:04.114Z,20.10
2018-06-24T10:00:13.106Z,20.00
2018-06-24T10:01:17.604Z,20.10
2018-06-24T10:02:21.855Z,20.10
2018-06-24T10:03:26.426Z,20.20
2018-06-24T10:04:31.354Z,20.20
2018-06-24T10:05:35.925Z,20.30
2018-06-24T10:06:40.233Z,20.30
2018-06-24T10:07:44.486Z,20.30
2018-06-24T10:08:48.761Z,20.30
2018-06-24T10:09:54.541Z,20.30
2018-06-24T10:10:58.913Z,20.30
2018-06-24T10:12:03.713Z,20.30
2018-06-24T10:13:08.589Z,20.30
2018-06-24T10:14:13.319Z,20.40
2018-06-24T10:15:17.614Z,20.40
2018-06-24T10:16:22.182Z,20.50
2018-06-24T10:17:26.500Z,20.50
2018-06-24T10:18:30.847Z,20.50
2018-06-24T10:19:35.231Z,20.60
2018-06-24T10:20:39.512Z,20.60
2018-06-24T10:21:43.628Z,20.60
2018-06-24T10:22:47.528Z,20.70
2018-06-24T10:23:51.447Z,20.70
2018-06-24T10:24:55.681Z,20.70
2018-06-24T10:25:59.838Z,20.80
2018-06-24T10:27:04.044Z,20.90
2018-06-24T10:28:08.714Z,20.80
2018-06-24T10:29:13.415Z,20.90
2018-06-24T10:30:17.632Z,20.90
2018-06-24T10:31:22.008Z,20.90
2018-06-24T10:32:26.224Z,20.90
2018-06-24T10:33:32.257Z,21.00
2018-06-24T10:35:40.352Z,21.00
2018-06-24T10:36:44.882Z,21.00
2018-06-24T10:39:56.146Z,21.10
2018-06-24T10:41:00.364Z,21.10
2018-06-24T10:42:04.463Z,21.00
2018-06-24T10:43:08.480Z,21.00
2018-06-24T10:44:12.745Z,21.10
2018-06-24T10:45:17.121Z,21.20
2018-06-24T10:46:21.381Z,21.70
2018-06-24T10:47:25.821Z,22.30
2018-06-24T10:48:30.242Z,23.00
2018-06-24T10:49:34.966Z,23.40
2018-06-24T10:50:39.821Z,23.60
2018-06-24T10:51:44.172Z,23.70
2018-06-24T10:52:48.471Z,23.60
2018-06-24T10:53:52.771Z,23.30
2018-06-24T10:54:57.595Z,23.00
2018-06-24T10:56:01.865Z,22.70
2018-06-24T10:57:06.134Z,22.50
2018-06-24T10:58:10.458Z,22.20
2018-06-24T10:59:14.853Z,22.30
2018-06-24T11:00:19.032Z,22.70
2018-06-24T11:01:23.349Z,23.30
2018-06-24T11:02:27.759Z,24.00
2018-06-24T11:03:33.356Z,25.00
2018-06-24T11:04:37.327Z,25.50
2018-06-24T11:05:41.523Z,26.20
2018-06-24T11:06:45.542Z,27.00
2018-06-24T11:07:50.013Z,27.50
2018-06-24T11:08:54.117Z,27.60
2018-06-24T11:09:58.165Z,27.30
2018-06-24T11:11:02.187Z,27.20
2018-06-24T11:12:06.574Z,27.40
2018-06-24T11:13:10.681Z,27.80
2018-06-24T11:14:15.023Z,27.90
2018-06-24T11:15:19.333Z,28.30
2018-06-24T11:16:23.624Z,28.80
2018-06-24T11:17:27.823Z,29.50
2018-06-24T11:18:32.461Z,30.20
2018-06-24T11:19:37.516Z,30.50
2018-06-24T11:20:42.438Z,30.80
2018-06-24T11:21:47.033Z,31.10
2018-06-24T11:22:51.263Z,31.20
2018-06-24T11:23:55.492Z,31.60
2018-06-24T11:24:59.833Z,31.70
2018-06-24T11:26:05.508Z,32.20
2018-06-24T11:27:10.851Z,32.60
2018-06-24T11:28:15.237Z,32.80
2018-06-24T11:29:19.581Z,32.90
2018-06-24T11:30:24.057Z,32.60
2018-06-24T11:31:28.925Z,32.30
2018-06-24T11:32:33.744Z,31.90
2018-06-24T11:33:38.763Z,31.60
2018-06-24T11:34:44.532Z,31.20
2018-06-24T11:35:49.376Z,30.50
2018-06-24T11:36:54.116Z,29.90
2018-06-24T11:37:58.665Z,29.30
2018-06-24T11:39:04.708Z,28.80
2018-06-24T11:40:08.688Z,28.30
2018-06-24T11:41:12.763Z,27.80
2018-06-24T11:42:16.782Z,27.40
2018-06-24T11:43:21.842Z,26.80
2018-06-24T11:44:26.390Z,26.30
2018-06-24T11:45:30.889Z,25.90
2018-06-24T11:46:35.240Z,25.60
2018-06-24T11:47:39.843Z,25.40
2018-06-24T11:48:44.476Z,25.20
2018-06-24T11:49:48.970Z,25.10
2018-06-24T11:50:53.444Z,24.70
2018-06-24T11:51:58.007Z,24.50
2018-06-24T11:53:02.272Z,24.30
2018-06-24T11:54:06.683Z,24.10
2018-06-24T11:55:10.966Z,24.10
2018-06-24T11:56:15.368Z,24.00
2018-06-24T11:57:19.630Z,23.90
2018-06-24T11:58:24.433Z,23.90
2018-06-24T11:59:28.855Z,23.90
2018-06-24T12:00:33.352Z,24.00
2018-06-24T12:01:38.126Z,24.00
2018-06-24T12:02:42.926Z,24.00
2018-06-24T12:03:47.012Z,24.10
2018-06-24T12:04:51.415Z,24.20
2018-06-24T12:05:55.688Z,24.30
2018-06-24T12:07:01.539Z,24.30
2018-06-24T12:08:07.229Z,24.40
2018-06-24T12:09:13.145Z,24.50
2018-06-24T12:10:17.234Z,24.50
2018-06-24T12:11:21.289Z,24.50
2018-06-24T12:12:27.081Z,24.50
2018-06-24T12:13:32.576Z,24.40
2018-06-24T12:14:36.944Z,24.30
2018-06-24T12:15:41.222Z,24.40
2018-06-24T12:16:46.111Z,24.30
2018-06-24T12:17:50.515Z,24.30
2018-06-24T12:18:54.771Z,24.20
2018-06-24T12:19:59.037Z,24.20
2018-06-24T12:21:03.113Z,24.20
2018-06-24T12:22:07.104Z,24.20
2018-06-24T12:23:11.237Z,24.10
2018-06-24T12:24:16.028Z,24.10
2018-06-24T12:25:20.150Z,24.10
2018-06-24T12:27:55.230Z,24.10
2018-06-24T12:28:59.653Z,24.10
2018-06-24T12:30:04.577Z,24.10
2018-06-24T12:31:09.183Z,24.00
2018-06-24T12:32:14.037Z,23.90
2018-06-24T12:33:18.443Z,23.80
2018-06-24T12:34:22.661Z,23.80
2018-06-24T12:35:27.367Z,23.80
2018-06-24T12:36:37.782Z,23.60
2018-06-24T12:37:42.159Z,23.60
2018-06-24T12:38:46.603Z,23.60
2018-06-24T12:39:51.211Z,23.60
2018-06-24T12:40:57.850Z,23.60
2018-06-24T12:42:03.585Z,23.50
2018-06-24T12:43:07.982Z,23.40
2018-06-24T12:44:12.240Z,23.40
2018-06-24T12:45:16.554Z,23.30
2018-06-24T12:46:21.299Z,23.30
2018-06-24T12:47:25.323Z,23.20
2018-06-24T12:48:30.123Z,23.30
2018-06-24T12:49:34.811Z,23.30
2018-06-24T12:50:39.122Z,23.30
2018-06-24T12:51:43.883Z,23.30
2018-06-24T12:53:25.695Z,23.30
2018-06-24T12:54:30.304Z,23.40
2018-06-24T12:55:34.798Z,23.40
2018-06-24T12:56:38.825Z,23.50
2018-06-24T12:57:43.009Z,23.50
2018-06-24T12:58:47.659Z,23.50
2018-06-24T12:59:52.272Z,23.60
2018-06-24T13:00:56.680Z,23.70
2018-06-24T13:02:00.569Z,23.70
2018-06-24T13:03:04.802Z,23.60
2018-06-24T13:04:08.987Z,23.60
2018-06-24T13:05:13.599Z,23.70
2018-06-24T13:06:17.869Z,23.70
2018-06-24T13:07:22.033Z,23.70
2018-06-24T13:08:26.292Z,23.70
2018-06-24T13:09:30.574Z,23.60
2018-06-24T13:10:34.954Z,23.60
2018-06-24T13:11:39.306Z,23.50
2018-06-24T13:12:43.665Z,23.40
2018-06-24T13:13:48.220Z,23.30
2018-06-24T13:14:52.384Z,23.20
2018-06-24T13:15:56.735Z,23.20
2018-06-24T13:17:01.272Z,23.20
2018-06-24T13:18:05.925Z,23.20
2018-06-24T13:19:09.867Z,23.20
2018-06-24T13:20:14.496Z,23.20
2018-06-24T13:21:18.635Z,23.20
2018-06-24T13:22:22.770Z,23.20
2018-06-24T13:23:26.866Z,23.20
2018-06-24T13:24:30.970Z,23.20
2018-06-24T13:25:34.957Z,23.20
2018-06-24T13:26:39.103Z,23.20
2018-06-24T13:27:43.304Z,23.20
2018-06-24T13:28:47.688Z,23.20
2018-06-24T13:29:52.248Z,23.10
2018-06-24T13:30:56.787Z,23.10
2018-06-24T13:32:01.510Z,23.10
2018-06-24T13:33:05.865Z,23.10
2018-06-24T13:34:10.399Z,23.10
2018-06-24T13:35:15.037Z,23.10
2018-06-24T13:36:19.285Z,23.10
2018-06-24T13:37:23.685Z,23.00
2018-06-24T13:38:28.784Z,22.90
2018-06-24T13:39:33.033Z,22.80
2018-06-24T13:40:37.479Z,22.70
2018-06-24T13:41:42.152Z,22.70
2018-06-24T13:42:46.537Z,22.50
2018-06-24T13:43:50.634Z,22.50
2018-06-24T13:44:54.825Z,22.40
2018-06-24T13:45:58.983Z,22.40
2018-06-24T13:47:03.103Z,22.50
2018-06-24T13:48:14.601Z,22.50
2018-06-24T13:49:18.797Z,22.40
2018-06-24T13:50:22.826Z,22.40
2018-06-24T13:51:26.978Z,22.50
2018-06-24T13:52:31.186Z,22.50
2018-06-24T13:53:36.226Z,22.50
2018-06-24T13:54:40.550Z,22.40
2018-06-24T13:55:44.870Z,22.40
2018-06-24T13:56:49.223Z,22.40
2018-06-24T13:57:53.305Z,22.40
2018-06-24T13:58:57.710Z,22.40
2018-06-24T14:00:01.958Z,22.40
2018-06-24T14:01:06.202Z,22.30